Time;durP1;ratioP1;P1;durP2;ratioP2;P2;SDS_P1;SDS_P2;PMS_P1;PMS_P2;Temp;Humidity;BMP_temperature;BMP_pressure;BME280_temperature;BME280_humidity;BME280_pressure;Samples;Min_cycle;Max_cycle;Signal;HPM_P1;HPM_P2
2023/10/17 04:00:50;;;;;;;;;;;;;;;;;;5021008;28;19964;-78
2023/10/17 04:03:21;;;;;;;;;;;;;;;;;;5023896;28;19932;-78
2023/10/17 04:05:50;;;;;;;;;;;;;;;;;;5015707;28;19926;-77
2023/10/17 04:08:25;;;;;;;;;;;4.00;99.90;;;;;;5015620;28;19932;-77
2023/10/17 04:11:07;;;;;;;;;;;0.60;99.90;;;;;;5015737;28;19929;-77
2023/10/17 04:13:35;;;;;;;;;;;0.50;99.90;;;;;;5038795;22;19932;-75
2023/10/17 04:16:08;;;;;;;;;;;0.50;99.90;;;;;;5014652;28;19925;-75
2023/10/17 04:18:37;;;;;;;;;;;0.50;99.90;;;;;;5013799;28;19984;-75
2023/10/17 04:21:16;;;;;;;;;;;0.50;99.90;;;;;;5014660;28;19925;-75
2023/10/17 04:23:44;;;;;;;;;;;0.50;99.90;;;;;;5014240;28;20377;-75
2023/10/17 04:26:17;;;;;;;;;;;0.40;99.90;;;;;;5014624;28;19976;-75
2023/10/17 04:28:49;;;;;;;;;;;0.40;99.90;;;;;;5014644;28;19925;-75
2023/10/17 04:31:25;;;;;;;;;;;0.40;99.90;;;;;;5014728;28;19931;-77
2023/10/17 04:33:56;;;;;;;;;;;0.40;99.90;;;;;;5015248;28;19969;-77
2023/10/17 04:36:23;;;;;;;;;;;0.50;99.90;;;;;;5017010;28;19957;-78
2023/10/17 04:39:10;;;;;;;;;;;0.40;99.90;;;;;;5016245;28;20382;-78
2023/10/17 04:41:48;;;;;;;;;;;0.40;99.90;;;;;;5016652;28;20365;-77
2023/10/17 04:44:16;;;;;;;;;;;0.40;99.90;;;;;;5016057;28;19976;-75
2023/10/17 04:46:50;;;;;;;;;;;0.40;99.90;;;;;;5017247;28;19922;-78
2023/10/17 04:49:18;;;;;;;;;;;0.40;99.90;;;;;;5016614;28;20085;-76
2023/10/17 04:51:45;;;;;;;;;;;;;;;;;;5014305;28;19929;-74
2023/10/17 04:54:22;;;;;;;;;;;;;;;;;;5014404;28;20330;-75
2023/10/17 04:56:59;;;;;;;;;;;;;;;;;;5014239;28;19922;-75
2023/10/17 04:59:41;;;;;;;;;;;;;;;;;;5015645;28;19936;-78
2023/10/17 05:02:35;;;;;;;;;;;;;;;;;;5016072;28;20402;-77
2023/10/17 05:08:04;;;;;;;;;;;;;;;;;;5014115;28;19936;-74
2023/10/17 10:52:25;;;;;;;;;;;12.30;99.90;;;;;;5145345;23;19928;-75
2023/10/17 10:54:59;;;;;;;;;;;12.40;99.90;;;;;;5036900;28;19925;-74
2023/10/17 10:57:29;;;;;;;;;;;12.50;99.90;;;;;;5036585;28;19932;-73
2023/10/17 10:59:55;;;;;;;;;;;12.50;99.90;;;;;;5036745;28;20028;-73
2023/10/17 11:02:23;;;;;;;;;;;12.60;99.90;;;;;;5036360;28;19925;-73
2023/10/17 11:04:50;;;;;;;;;;;12.60;99.90;;;;;;5036611;28;19931;-73
2023/10/17 11:07:20;;;;;;;;;;;12.60;99.90;;;;;;5068426;23;20011;-73
2023/10/17 11:10:00;;;;;;;;;;;12.60;99.90;;;;;;5076822;28;19924;-73
2023/10/17 11:12:27;;;;;;;;;;;12.60;99.90;;;;;;5076457;28;19924;-73
2023/10/17 11:15:07;;;;;;;;;;;12.70;99.90;;;;;;5076318;28;19936;-73
2023/10/17 11:17:40;;;;;;;;;;;12.70;99.90;;;;;;5068784;28;19924;-73
2023/10/17 11:20:16;;;;;;;;;;;12.70;99.90;;;;;;5056013;28;20323;-72
2023/10/17 11:22:42;;;;;;;;;;;12.90;99.90;;;;;;5056593;28;20035;-72
2023/10/17 11:25:16;;;;;;;;;;;12.90;99.90;;;;;;5056974;28;19924;-72
2023/10/17 11:27:53;;;;;;;;;;;13.10;99.90;;;;;;5056086;28;19925;-72
2023/10/17 11:30:20;;;;;;;;;;;13.10;99.90;;;;;;5056119;28;19987;-72
2023/10/17 11:32:49;;;;;;;;;;;13.20;99.90;;;;;;5056102;28;19931;-72
2023/10/17 11:35:29;;;;;;;;;;;13.20;99.90;;;;;;5055872;28;19925;-72
2023/10/17 11:37:56;;;;;;;;;;;13.20;99.90;;;;;;5056003;28;19931;-72
2023/10/17 11:40:32;;;;;;;;;;;13.30;99.90;;;;;;5055634;28;20392;-72
2023/10/17 11:43:00;;;;;;;;;;;13.30;99.90;;;;;;5055212;28;20453;-73
2023/10/17 11:45:33;;;;;;;;;;;13.40;99.90;;;;;;5055130;28;19976;-73
2023/10/17 11:48:06;;;;;;;;;;;13.50;99.90;;;;;;5055515;28;19928;-72
2023/10/17 11:50:35;;;;;;;;;;;13.60;99.90;;;;;;5055689;28;20015;-72
2023/10/17 11:53:12;;;;;;;;;;;13.70;99.90;;;;;;5055173;28;19935;-72
2023/10/17 11:55:45;;;;;;;;;;;13.90;99.90;;;;;;5055341;28;19931;-73
2023/10/17 11:58:20;;;;;;;;;;;14.00;99.90;;;;;;5055578;28;20305;-73
2023/10/17 12:00:47;;;;;;;;;;;14.10;99.90;;;;;;5055352;28;19967;-72
2023/10/17 12:03:19;;;;;;;;;;;14.20;99.90;;;;;;5055147;28;19931;-73
2023/10/17 12:05:45;;;;;;;;;;;14.30;99.90;;;;;;5054290;28;20310;-72
2023/10/17 12:08:15;;;;;;;;;;;14.50;99.90;;;;;;5054822;28;19925;-72
2023/10/17 12:10:46;;;;;;;;;;;14.50;99.90;;;;;;5055410;28;19929;-73
2023/10/17 12:13:16;;;;;;;;;;;14.60;99.90;;;;;;5054984;28;19925;-73
2023/10/17 12:15:43;;;;;;;;;;;14.60;99.90;;;;;;5055636;28;19925;-72
2023/10/17 12:18:09;;;;;;;;;;;14.70;99.90;;;;;;5055167;28;19925;-72
2023/10/17 12:20:40;;;;;;;;;;;14.80;99.90;;;;;;5055113;28;19925;-72
2023/10/17 12:23:08;;;;;;;;;;;14.80;99.90;;;;;;5054937;28;19963;-73
2023/10/17 12:25:36;;;;;;;;;;;14.90;99.90;;;;;;5055188;28;19991;-72
2023/10/17 12:28:06;;;;;;;;;;;14.90;99.90;;;;;;5055099;28;19982;-73
2023/10/17 12:30:36;;;;;;;;;;;14.90;99.90;;;;;;5055121;28;19925;-73
2023/10/17 12:33:04;;;;;;;;;;;14.90;99.90;;;;;;5054514;28;19925;-73
2023/10/17 12:35:30;;;;;;;;;;;15.00;99.90;;;;;;5054897;28;19925;-73
2023/10/17 12:37:59;;;;;;;;;;;15.10;99.90;;;;;;5054422;28;19925;-73
2023/10/17 12:40:26;;;;;;;;;;;15.10;99.90;;;;;;5054414;28;19925;-73
2023/10/17 12:42:55;;;;;;;;;;;15.20;99.90;;;;;;5054732;28;19935;-72
2023/10/17 12:45:24;;;;;;;;;;;15.20;99.90;;;;;;5054378;28;20402;-72
2023/10/17 12:47:51;;;;;;;;;;;15.30;99.90;;;;;;5054359;28;19925;-72
2023/10/17 12:50:18;;;;;;;;;;;15.30;99.90;;;;;;5054342;28;20377;-72
2023/10/17 12:52:45;;;;;;;;;;;15.40;99.90;;;;;;5054206;28;19924;-72
2023/10/17 12:55:12;;;;;;;;;;;15.40;99.90;;;;;;5054443;28;19925;-72
2023/10/17 12:57:39;;;;;;;;;;;15.40;99.90;;;;;;5054229;28;20329;-72
2023/10/17 13:00:09;;;;;;;;;;;15.30;99.90;;;;;;5054110;28;19925;-72
2023/10/17 13:02:38;;;;;;;;;;;15.40;99.90;;;;;;5054363;28;19979;-72
2023/10/17 13:05:07;;;;;;;;;;;15.40;99.90;;;;;;5054162;28;19924;-72
2023/10/17 13:07:34;;;;;;;;;;;15.40;99.90;;;;;;5053783;28;19924;-72
2023/10/17 13:10:00;;;;;;;;;;;15.50;99.90;;;;;;5054029;28;19925;-72
2023/10/17 13:12:27;;;;;;;;;;;15.50;99.90;;;;;;5053810;28;19932;-72
2023/10/17 13:14:54;;;;;;;;;;;15.50;99.90;;;;;;5053495;28;19925;-74
2023/10/17 13:17:22;;;;;;;;;;;15.50;99.90;;;;;;5054056;28;19956;-72
2023/10/17 13:19:51;;;;;;;;;;;15.50;99.90;;;;;;5054113;28;19925;-71
2023/10/17 13:22:19;;;;;;;;;;;15.60;99.90;;;;;;5053687;28;19924;-71
2023/10/17 13:24:48;;;;;;;;;;;15.60;99.90;;;;;;5053912;28;19971;-72
2023/10/17 13:27:15;;;;;;;;;;;15.60;99.90;;;;;;5053482;28;19982;-72
2023/10/17 13:29:42;;;;;;;;;;;15.60;99.90;;;;;;5053893;28;19967;-72
2023/10/17 13:32:09;;;;;;;;;;;15.60;99.90;;;;;;5053694;28;20278;-72
2023/10/17 13:34:35;;;;;;;;;;;15.70;99.90;;;;;;5053739;28;20402;-72
2023/10/17 13:37:04;;;;;;;;;;;15.70;99.90;;;;;;5053750;28;19931;-72
2023/10/17 13:39:31;;;;;;;;;;;15.70;99.90;;;;;;5054645;28;19925;-72
2023/10/17 13:41:58;;;;;;;;;;;15.70;99.90;;;;;;5053413;28;20393;-72
2023/10/17 13:44:24;;;;;;;;;;;15.70;99.90;;;;;;5053842;28;20007;-72
2023/10/17 13:46:52;;;;;;;;;;;15.80;99.90;;;;;;5053800;28;19925;-74
2023/10/17 13:49:18;;;;;;;;;;;15.80;99.90;;;;;;5053978;28;19929;-75
2023/10/17 13:51:47;;;;;;;;;;;15.80;99.90;;;;;;5057498;28;19925;-75
2023/10/17 13:54:16;;;;;;;;;;;15.80;99.90;;;;;;5057102;28;19933;-75
2023/10/17 13:56:43;;;;;;;;;;;15.80;99.90;;;;;;5057606;28;19925;-73
2023/10/17 13:59:10;;;;;;;;;;;15.70;99.90;;;;;;5057561;28;19983;-74
2023/10/17 14:01:42;;;;;;;;;;;15.60;99.90;;;;;;5058336;28;19925;-77
2023/10/17 14:04:10;;;;;;;;;;;15.60;99.90;;;;;;5058230;28;20463;-75
2023/10/17 14:06:39;;;;;;;;;;;15.50;99.90;;;;;;5058308;28;19924;-75
2023/10/17 14:09:14;;;;;;;;;;;15.40;99.90;;;;;;5057526;28;19925;-77
2023/10/17 14:11:42;;;;;;;;;;;15.30;99.90;;;;;;5057571;28;19960;-75
2023/10/17 14:14:10;;;;;;;;;;;15.20;99.90;;;;;;5057599;28;19925;-75
2023/10/17 14:16:40;;;;;;;;;;;15.00;99.90;;;;;;5057476;28;20311;-75
2023/10/17 14:19:13;;;;;;;;;;;14.90;99.90;;;;;;5057503;28;20348;-75
2023/10/17 14:21:41;;;;;;;;;;;14.80;99.90;;;;;;5057710;28;19924;-75
2023/10/17 14:24:10;;;;;;;;;;;14.60;99.90;;;;;;5057664;28;19931;-75
2023/10/17 14:26:37;;;;;;;;;;;14.50;99.90;;;;;;5057540;28;19925;-75
2023/10/17 14:29:05;;;;;;;;;;;14.40;99.90;;;;;;5057708;28;19968;-75
2023/10/17 14:31:32;;;;;;;;;;;14.30;99.90;;;;;;5057279;28;19932;-72
2023/10/17 14:33:59;;;;;;;;;;;14.20;99.90;;;;;;5056808;28;19932;-72
2023/10/17 14:36:26;;;;;;;;;;;14.10;99.90;;;;;;5056777;28;19932;-72
2023/10/17 14:38:53;;;;;;;;;;;13.90;99.90;;;;;;5056299;28;19928;-72
2023/10/17 14:41:20;;;;;;;;;;;13.80;99.90;;;;;;5056563;28;19972;-72
2023/10/17 14:43:49;;;;;;;;;;;13.70;99.90;;;;;;5056256;28;19932;-72
2023/10/17 14:46:17;;;;;;;;;;;13.60;99.90;;;;;;5056857;28;19931;-72
2023/10/17 14:48:44;;;;;;;;;;;13.50;99.90;;;;;;5056629;28;20301;-72
2023/10/17 14:51:12;;;;;;;;;;;13.40;99.90;;;;;;5056408;28;20410;-72
2023/10/17 14:53:42;;;;;;;;;;;13.30;99.90;;;;;;5057434;28;19931;-71
2023/10/17 14:56:12;;;;;;;;;;;13.20;99.90;;;;;;5056071;28;20374;-71
2023/10/17 14:58:40;;;;;;;;;;;13.10;99.90;;;;;;5056357;28;20018;-71
2023/10/17 15:01:07;;;;;;;;;;;13.00;99.90;;;;;;5056299;28;19924;-71
2023/10/17 15:03:36;;;;;;;;;;;12.90;99.90;;;;;;5055937;28;19924;-70
2023/10/17 15:06:03;;;;;;;;;;;12.80;99.90;;;;;;5056305;28;19971;-71
2023/10/17 15:08:31;;;;;;;;;;;12.70;99.90;;;;;;5055736;28;19929;-71
2023/10/17 15:11:02;;;;;;;;;;;12.60;99.90;;;;;;5055805;28;20348;-71
2023/10/17 15:13:30;;;;;;;;;;;12.50;99.90;;;;;;5055777;28;19932;-71
2023/10/17 15:15:56;;;;;;;;;;;12.40;99.90;;;;;;5055705;28;19987;-71
2023/10/17 15:18:24;;;;;;;;;;;12.40;99.90;;;;;;5055968;28;19925;-71
2023/10/17 15:20:52;;;;;;;;;;;12.30;99.90;;;;;;5056165;28;20024;-71
2023/10/17 15:23:18;;;;;;;;;;;12.20;99.90;;;;;;5055844;28;20310;-71
2023/10/17 15:25:45;;;;;;;;;;;12.10;99.90;;;;;;5056071;28;20302;-71
2023/10/17 15:28:11;;;;;;;;;;;12.00;99.90;;;;;;5056094;28;19948;-71
2023/10/17 15:30:38;;;;;;;;;;;11.90;99.90;;;;;;5056251;28;19931;-71
2023/10/17 15:33:05;;;;;;;;;;;11.80;99.90;;;;;;5055755;28;19928;-71
2023/10/17 15:35:33;;;;;;;;;;;11.70;99.90;;;;;;5055668;28;19925;-71
2023/10/17 15:38:01;;;;;;;;;;;11.60;99.90;;;;;;5056242;28;19932;-71
2023/10/17 15:40:28;;;;;;;;;;;11.50;99.90;;;;;;5055957;28;19925;-71
2023/10/17 15:42:55;;;;;;;;;;;11.50;99.90;;;;;;5056247;28;19929;-71
2023/10/17 15:45:22;;;;;;;;;;;11.40;99.90;;;;;;5056040;28;19931;-71
2023/10/17 15:47:51;;;;;;;;;;;11.30;99.90;;;;;;5055634;28;19925;-71
2023/10/17 15:50:18;;;;;;;;;;;11.30;99.90;;;;;;5056278;28;19931;-71
2023/10/17 15:52:45;;;;;;;;;;;11.20;99.90;;;;;;5055772;28;20027;-71
2023/10/17 15:55:13;;;;;;;;;;;11.10;99.90;;;;;;5056108;28;19925;-72
2023/10/17 15:57:40;;;;;;;;;;;11.10;99.90;;;;;;5055435;28;19931;-72
2023/10/17 16:00:13;;;;;;;;;;;11.00;99.90;;;;;;5055699;28;19925;-72
2023/10/17 16:02:40;;;;;;;;;;;11.00;99.90;;;;;;5055955;28;19948;-72
2023/10/17 16:05:10;;;;;;;;;;;10.90;99.90;;;;;;5055728;28;19932;-72
2023/10/17 16:07:37;;;;;;;;;;;10.80;99.90;;;;;;5055115;28;20019;-72
2023/10/17 16:10:05;;;;;;;;;;;10.70;99.90;;;;;;5055489;28;19925;-72
2023/10/17 16:12:33;;;;;;;;;;;10.70;99.90;;;;;;5055128;28;19925;-72
2023/10/17 16:14:59;;;;;;;;;;;10.60;99.90;;;;;;5055493;28;19925;-73
2023/10/17 16:17:26;;;;;;;;;;;10.50;99.90;;;;;;5054733;28;20404;-74
2023/10/17 16:19:52;;;;;;;;;;;10.40;99.90;;;;;;5055193;28;20305;-73
2023/10/17 16:22:19;;;;;;;;;;;10.30;99.90;;;;;;5055842;28;20283;-73
2023/10/17 16:24:46;;;;;;;;;;;10.20;99.90;;;;;;5055209;28;20412;-74
2023/10/17 16:27:15;;;;;;;;;;;10.10;99.90;;;;;;5055281;28;19931;-73
2023/10/17 16:29:43;;;;;;;;;;;10.00;99.90;;;;;;5055004;28;19925;-74
2023/10/17 16:32:11;;;;;;;;;;;9.90;99.90;;;;;;5055125;28;19932;-73
2023/10/17 16:34:37;;;;;;;;;;;9.70;99.90;;;;;;5054927;28;20400;-74
2023/10/17 16:37:04;;;;;;;;;;;9.60;99.90;;;;;;5055054;28;19931;-73
2023/10/17 16:39:31;;;;;;;;;;;9.50;99.90;;;;;;5054825;28;19932;-74
2023/10/17 16:41:58;;;;;;;;;;;9.40;99.90;;;;;;5054734;28;19924;-73
2023/10/17 16:44:24;;;;;;;;;;;9.30;99.90;;;;;;5054704;28;19935;-74
2023/10/17 16:46:52;;;;;;;;;;;9.20;99.90;;;;;;5054945;28;19924;-73
2023/10/17 16:49:20;;;;;;;;;;;9.10;99.90;;;;;;5055320;28;19932;-74
2023/10/17 16:51:47;;;;;;;;;;;9.00;99.90;;;;;;5055722;28;19924;-74
2023/10/17 16:54:14;;;;;;;;;;;8.90;99.90;;;;;;5055991;28;19971;-76
2023/10/17 16:56:41;;;;;;;;;;;8.80;99.90;;;;;;5057638;28;19994;-76
2023/10/17 16:59:07;;;;;;;;;;;8.70;99.90;;;;;;5057560;28;19925;-78
2023/10/17 17:01:34;;;;;;;;;;;8.60;99.90;;;;;;5057477;28;19932;-77
2023/10/17 17:04:06;;;;;;;;;;;8.50;99.90;;;;;;5057832;28;19932;-74
2023/10/17 17:06:33;;;;;;;;;;;8.50;99.90;;;;;;5070767;28;19981;-81
2023/10/17 17:09:00;;;;;;;;;;;8.40;99.90;;;;;;5067441;28;19948;-78
2023/10/17 17:11:27;;;;;;;;;;;8.30;99.90;;;;;;5059650;28;19925;-78
2023/10/17 17:13:54;;;;;;;;;;;8.20;99.90;;;;;;5059595;28;19924;-78
2023/10/17 17:16:21;;;;;;;;;;;8.10;99.90;;;;;;5060092;28;19925;-78
2023/10/17 17:18:48;;;;;;;;;;;8.00;99.90;;;;;;5058180;28;19972;-78
2023/10/17 17:21:16;;;;;;;;;;;7.90;99.90;;;;;;5063537;28;19931;-78
2023/10/17 17:23:42;;;;;;;;;;;8.00;99.90;;;;;;5064714;28;19924;-77
2023/10/17 17:26:14;;;;;;;;;;;7.80;99.90;;;;;;5065407;28;19925;-78
2023/10/17 17:28:41;;;;;;;;;;;7.80;99.90;;;;;;5066849;28;19988;-78
2023/10/17 17:31:07;;;;;;;;;;;7.70;99.90;;;;;;5065090;28;19925;-78
2023/10/17 17:33:34;;;;;;;;;;;7.60;99.90;;;;;;5063247;28;19936;-78
2023/10/17 17:36:02;;;;;;;;;;;7.60;99.90;;;;;;5064371;28;19950;-78
2023/10/17 17:38:31;;;;;;;;;;;7.50;99.90;;;;;;5064716;28;19925;-77
2023/10/17 17:40:58;;;;;;;;;;;7.50;99.90;;;;;;5062326;28;19932;-77
2023/10/17 17:43:27;;;;;;;;;;;7.40;99.90;;;;;;5062753;28;20055;-77
2023/10/17 17:45:53;;;;;;;;;;;7.30;99.90;;;;;;5063673;28;19929;-76
2023/10/17 17:48:21;;;;;;;;;;;7.30;99.90;;;;;;5064744;28;19928;-76
2023/10/17 17:50:48;;;;;;;;;;;7.20;99.90;;;;;;5068725;28;20007;-79
2023/10/17 17:53:15;;;;;;;;;;;7.20;99.90;;;;;;5069708;28;19924;-79
2023/10/17 17:55:48;;;;;;;;;;;7.10;99.90;;;;;;5070301;28;20019;-80
2023/10/17 17:58:14;;;;;;;;;;;7.00;99.90;;;;;;5071066;28;20096;-79
2023/10/17 18:00:41;;;;;;;;;;;6.90;99.90;;;;;;5063061;28;19931;-77
2023/10/17 18:03:08;;;;;;;;;;;6.90;99.90;;;;;;5061441;28;19925;-76
2023/10/17 18:05:38;;;;;;;;;;;6.80;99.90;;;;;;5063199;28;19984;-79
2023/10/17 18:08:04;;;;;;;;;;;6.70;99.90;;;;;;5068815;28;19925;-78
2023/10/17 18:10:33;;;;;;;;;;;6.70;99.90;;;;;;5075376;28;19987;-79
2023/10/17 18:13:02;;;;;;;;;;;6.60;99.90;;;;;;5071925;28;19929;-78
2023/10/17 18:15:31;;;;;;;;;;;6.60;99.90;;;;;;5074216;28;19932;-78
2023/10/17 18:17:59;;;;;;;;;;;6.50;99.90;;;;;;5070055;28;19925;-79
2023/10/17 18:20:25;;;;;;;;;;;6.50;99.90;;;;;;5074289;28;19925;-78
2023/10/17 18:22:52;;;;;;;;;;;6.40;99.90;;;;;;5071186;28;19924;-80
2023/10/17 18:25:20;;;;;;;;;;;6.40;99.90;;;;;;5075964;28;19924;-79
2023/10/17 18:27:47;;;;;;;;;;;6.40;99.90;;;;;;5066435;28;19929;-79
2023/10/17 18:30:15;;;;;;;;;;;;;;;;;;5070514;28;19925;-78
2023/10/17 18:32:42;;;;;;;;;;;;;;;;;;5074567;28;19963;-78
2023/10/17 18:35:09;;;;;;;;;;;;;;;;;;5074593;28;19925;-78
2023/10/17 18:37:39;;;;;;;;;;;;;;;;;;5073434;28;19925;-79
2023/10/17 18:40:07;;;;;;;;;;;;;;;;;;5075721;28;19908;-78
2023/10/17 18:42:34;;;;;;;;;;;;;;;;;;5076602;28;19936;-79
2023/10/17 18:45:08;;;;;;;;;;;;;;;;;;5075752;28;19967;-78
2023/10/17 18:47:35;;;;;;;;;;;;;;;;;;5071489;28;19925;-78
2023/10/17 18:50:02;;;;;;;;;;;;;;;;;;5072494;28;19924;-78
2023/10/17 18:52:30;;;;;;;;;;;;;;;;;;5066637;28;19925;-77
2023/10/17 18:54:58;;;;;;;;;;;;;;;;;;5061427;28;19928;-77
2023/10/17 18:57:25;;;;;;;;;;;;;;;;;;5061201;28;19925;-78
2023/10/17 18:59:52;;;;;;;;;;;;;;;;;;5061591;28;19924;-77
2023/10/17 19:02:19;;;;;;;;;;;;;;;;;;5061179;28;20369;-77
2023/10/17 19:04:46;;;;;;;;;;;;;;;;;;5061202;28;19932;-75
2023/10/17 19:07:18;;;;;;;;;;;;;;;;;;5061710;28;19952;-77
2023/10/17 19:09:45;;;;;;;;;;;;;;;;;;5061554;28;20265;-77
2023/10/17 19:12:12;;;;;;;;;;;;;;;;;;5062999;28;19931;-78
2023/10/17 19:14:39;;;;;;;;;;;;;;;;;;5061187;28;19925;-77
2023/10/17 19:17:06;;;;;;;;;;;;;;;;;;5061412;28;19924;-78
2023/10/17 19:19:33;;;;;;;;;;;;;;;;;;5062005;28;19925;-78
2023/10/17 19:22:05;;;;;;;;;;;;;;;;;;5062070;28;19931;-78
2023/10/17 19:24:32;;;;;;;;;;;;;;;;;;5062363;28;19932;-78
2023/10/17 19:26:59;;;;;;;;;;;;;;;;;;5061782;28;19929;-78
2023/10/17 19:29:27;;;;;;;;;;;;;;;;;;5062286;28;20441;-77
2023/10/17 19:31:54;;;;;;;;;;;;;;;;;;5062522;28;19929;-78
2023/10/17 19:34:21;;;;;;;;;;;;;;;;;;5062337;28;19980;-78
2023/10/17 19:36:48;;;;;;;;;;;;;;;;;;5062182;28;19935;-77
2023/10/17 19:39:15;;;;;;;;;;;;;;;;;;5062822;28;19931;-77
2023/10/17 19:41:42;;;;;;;;;;;;;;;;;;5062549;28;19964;-78
2023/10/17 19:44:10;;;;;;;;;;;;;;;;;;5064333;28;20374;-79
2023/10/17 19:46:38;;;;;;;;;;;;;;;;;;5066571;28;19925;-80
2023/10/17 19:49:05;;;;;;;;;;;;;;;;;;5063793;28;19925;-79
2023/10/17 19:51:32;;;;;;;;;;;;;;;;;;5063588;28;19931;-80
2023/10/17 19:53:59;;;;;;;;;;;;;;;;;;5064843;28;19925;-79
2023/10/17 19:56:26;;;;;;;;;;;;;;;;;;5069294;28;19927;-79
2023/10/17 19:58:53;;;;;;;;;;;;;;;;;;5072432;28;19931;-79
2023/10/17 20:01:20;;;;;;;;;;;;;;;;;;5068800;28;19931;-77
2023/10/17 20:03:48;;;;;;;;;;;;;;;;;;5066265;28;19929;-77
2023/10/17 20:06:14;;;;;;;;;;;;;;;;;;5065160;28;19931;-78
2023/10/17 20:08:41;;;;;;;;;;;;;;;;;;5067585;28;19931;-78
2023/10/17 20:11:09;;;;;;;;;;;;;;;;;;5075078;28;19931;-79
2023/10/17 20:13:39;;;;;;;;;;;;;;;;;;5070388;28;19925;-79
2023/10/17 20:16:06;;;;;;;;;;;;;;;;;;5070557;28;19931;-79
2023/10/17 20:18:36;;;;;;;;;;;;;;;;;;5067261;28;19932;-79
2023/10/17 20:21:03;;;;;;;;;;;;;;;;;;5064160;28;19931;-80
2023/10/17 20:23:30;;;;;;;;;;;;;;;;;;5063337;28;19964;-79
2023/10/17 20:25:57;;;;;;;;;;;;;;;;;;5062372;28;19975;-78
2023/10/17 20:28:24;;;;;;;;;;;;;;;;;;5060671;28;19925;-79
2023/10/17 20:30:52;;;;;;;;;;;;;;;;;;5062699;28;19925;-78
2023/10/17 20:33:19;;;;;;;;;;;;;;;;;;5076109;28;19909;-78
2023/10/17 20:35:46;;;;;;;;;;;;;;;;;;5075998;28;19931;-79
2023/10/17 20:38:13;;;;;;;;;;;;;;;;;;5076953;28;19948;-78
2023/10/17 20:40:40;;;;;;;;;;;;;;;;;;5075126;28;19991;-77
2023/10/17 20:43:08;;;;;;;;;;;;;;;;;;5076308;28;19984;-77
2023/10/17 20:45:35;;;;;;;;;;;;;;;;;;5075395;28;19924;-77
2023/10/17 20:48:03;;;;;;;;;;;;;;;;;;5075324;28;19912;-79
2023/10/17 20:50:30;;;;;;;;;;;;;;;;;;5076688;28;19925;-78
2023/10/17 20:52:58;;;;;;;;;;;;;;;;;;5076452;28;19931;-77
2023/10/17 20:55:25;;;;;;;;;;;;;;;;;;5076016;28;19924;-77
2023/10/17 20:57:52;;;;;;;;;;;;;;;;;;5076352;28;19976;-77
2023/10/17 21:00:19;;;;;;;;;;;;;;;;;;5075568;28;19928;-78
2023/10/17 21:02:46;;;;;;;;;;;;;;;;;;5076826;28;19980;-78
2023/10/17 21:05:13;;;;;;;;;;;;;;;;;;5072300;28;19924;-78
2023/10/17 21:07:40;;;;;;;;;;;;;;;;;;5071689;28;19925;-78
2023/10/17 21:10:07;;;;;;;;;;;;;;;;;;5076967;28;19971;-82
2023/10/17 21:12:36;;;;;;;;;;;;;;;;;;5077892;28;19980;-80
2023/10/17 21:15:05;;;;;;;;;;;;;;;;;;5077050;28;19928;-79
2023/10/17 21:17:32;;;;;;;;;;;;;;;;;;5069010;28;19971;-78
2023/10/17 21:20:00;;;;;;;;;;;;;;;;;;5067120;28;19928;-79
2023/10/17 21:22:27;;;;;;;;;;;;;;;;;;5061798;28;20023;-79
2023/10/17 21:24:54;;;;;;;;;;;;;;;;;;5072412;28;19952;-79
2023/10/17 21:27:21;;;;;;;;;;;;;;;;;;5070260;28;19924;-77
